Time;durP1;ratioP1;P1;durP2;ratioP2;P2;SDS_P1;SDS_P2;PMS_P1;PMS_P2;Temp;Humidity;BMP_temperature;BMP_pressure;BME280_temperature;BME280_humidity;BME280_pressure;Samples;Min_cycle;Max_cycle;Signal;HPM_P1;HPM_P2
2022/09/25 00:00:45;;;;;;;25.23;13.10;;;;;;;9.25;82.63;95196.41;4983576;28;20319;-77
2022/09/25 00:03:12;;;;;;;21.63;12.33;;;;;;;9.29;82.31;95189.75;4988165;28;20204;-77
2022/09/25 00:05:40;;;;;;;23.97;13.07;;;;;;;9.24;82.63;95194.78;4992779;28;20377;-77
2022/09/25 00:08:06;;;;;;;22.57;12.67;;;;;;;9.23;82.37;95195.78;4994287;28;20185;-76
2022/09/25 00:10:31;;;;;;;20.50;11.33;;;;;;;9.20;82.45;95190.91;4994048;28;20209;-77
2022/09/25 00:12:57;;;;;;;23.07;12.30;;;;;;;9.19;82.31;95186.66;4994166;28;20678;-77
2022/09/25 00:15:22;;;;;;;20.57;11.43;;;;;;;9.18;81.94;95189.47;4985866;28;20213;-77
2022/09/25 00:17:48;;;;;;;17.83;11.07;;;;;;;8.81;82.44;95146.06;4993992;28;20196;-77
2022/09/25 00:20:16;;;;;;;16.47;10.60;;;;;;;8.87;82.63;95161.03;4993118;28;20177;-77
2022/09/25 00:22:41;;;;;;;19.97;10.83;;;;;;;8.90;83.14;95187.72;4993857;28;20193;-77
2022/09/25 00:25:13;;;;;;;22.90;11.90;;;;;;;8.88;83.20;95181.03;4993729;28;20177;-77
2022/09/25 00:27:40;;;;;;;21.93;11.77;;;;;;;8.90;83.16;95184.28;4989176;28;20181;-77
2022/09/25 00:30:06;;;;;;;17.37;10.37;;;;;;;8.84;82.98;95177.16;4993007;28;20181;-77
2022/09/25 00:32:32;;;;;;;20.67;10.07;;;;;;;8.88;83.33;95181.84;4993750;28;20180;-77
2022/09/25 00:34:57;;;;;;;27.63;11.47;;;;;;;8.91;82.88;95180.63;4993477;28;20205;-76
2022/09/25 00:37:23;;;;;;;19.17;10.77;;;;;;;8.93;82.47;95183.88;4993616;28;20220;-77
2022/09/25 00:39:48;;;;;;;19.60;9.67;;;;;;;8.74;83.30;95182.75;4987718;28;20189;-77
2022/09/25 00:42:18;;;;;;;17.30;9.63;;;;;;;8.72;83.66;95170.84;4995927;28;20188;-76
2022/09/25 00:44:55;;;;;;;22.57;10.70;;;;;;;8.74;83.35;95168.81;4993362;28;20189;-76
2022/09/25 00:47:38;;;;;;;22.70;9.97;;;;;;;8.75;83.23;95170.44;4991341;28;20180;-76
2022/09/25 00:50:17;;;;;;;18.97;9.47;;;;;;;8.56;82.98;95150.94;4993289;28;20247;-76
2022/09/25 00:52:44;;;;;;;19.70;9.00;;;;;;;8.68;83.19;95175.63;4992841;28;20714;-76
2022/09/25 00:55:11;;;;;;;20.87;9.23;;;;;;;8.52;83.11;95158.38;4987378;28;20259;-76
2022/09/25 00:57:39;;;;;;;18.23;9.53;;;;;;;8.62;83.31;95174.59;4989172;28;20185;-76
2022/09/25 01:00:08;;;;;;;19.97;8.63;;;;;;;8.63;83.38;95164.91;4992776;28;20628;-76
2022/09/25 01:02:38;;;;;;;13.63;7.63;;;;;;;8.37;82.74;95134.06;4992572;28;20184;-76
2022/09/25 01:05:10;;;;;;;17.53;9.03;;;;;;;8.54;83.22;95169.50;4992799;28;20251;-76
2022/09/25 01:07:39;;;;;;;14.80;8.70;;;;;;;8.44;83.66;95158.50;4992494;28;20208;-76
2022/09/25 01:10:07;;;;;;;13.80;8.80;;;;;;;8.50;83.85;95164.81;4992410;28;20264;-76
2022/09/25 01:12:42;;;;;;;15.43;10.17;;;;;;;8.50;83.74;95159.56;4991171;28;20420;-76
2022/09/25 01:15:11;;;;;;;18.03;8.77;;;;;;;8.43;83.14;95135.09;4989132;28;20502;-76
2022/09/25 01:18:00;;;;;;;15.43;8.77;;;;;;;8.54;83.25;95153.75;4992638;28;20247;-76
2022/09/25 01:20:28;;;;;;;14.90;8.50;;;;;;;8.50;82.58;95157.75;4992521;28;20169;-76
2022/09/25 01:23:28;;;;;;;15.73;8.20;;;;;;;8.41;83.16;95158.06;4992301;28;20657;-76
2022/09/25 01:26:27;;;;;;;15.30;8.10;;;;;;;8.33;83.25;95159.84;4987694;28;20973;-76
2022/09/25 01:29:12;;;;;;;16.77;8.97;;;;;;;8.29;83.54;95152.50;4992212;28;20632;-76
2022/09/25 01:32:01;;;;;;;19.93;9.80;;;;;;;7.93;84.09;95129.81;4992275;28;20207;-76
2022/09/25 01:34:59;;;;;;;14.77;8.70;;;;;;;8.07;84.35;95161.38;4992362;28;20177;-76
2022/09/25 01:37:32;;;;;;;14.57;8.20;;;;;;;7.83;84.79;95139.78;4991501;28;20204;-77
2022/09/25 01:40:05;;;;;;;17.17;8.47;;;;;;;8.05;84.50;95156.31;4987202;28;20196;-77
2022/09/25 01:43:02;;;;;;;24.93;9.00;;;;;;;8.08;84.37;95158.56;4992104;28;20177;-77
2022/09/25 01:45:35;;;;;;;14.33;8.13;;;;;;;8.07;84.07;95159.56;4944287;28;20189;-77
2022/09/25 01:48:02;;;;;;;15.53;8.87;;;;;;;7.91;84.38;95160.63;4992048;28;20553;-77
2022/09/25 01:50:41;;;;;;;15.80;8.33;;;;;;;7.97;84.31;95170.38;4991965;28;20181;-75
2022/09/25 01:53:11;;;;;;;17.27;9.97;;;;;;;7.92;84.68;95175.38;4987516;28;20172;-76
2022/09/25 01:55:42;;;;;;;19.47;9.53;;;;;;;7.91;84.72;95167.69;4988885;28;20259;-77
2022/09/25 01:58:22;;;;;;;13.93;8.60;;;;;;;7.90;84.88;95174.72;4990083;28;20185;-77
2022/09/25 02:00:55;;;;;;;19.60;9.33;;;;;;;7.99;84.70;95169.38;4983992;28;20259;-77
2022/09/25 02:03:29;;;;;;;14.40;8.67;;;;;;;7.94;84.68;95164.69;4992038;28;20200;-77
2022/09/25 02:06:00;;;;;;;13.30;8.10;;;;;;;7.96;84.06;95157.44;4992850;28;20274;-77
2022/09/25 02:08:32;;;;;;;18.10;9.13;;;;;;;7.92;84.01;95149.16;5003396;28;20689;-77
2022/09/25 02:11:04;;;;;;;16.10;8.33;;;;;;;7.91;84.22;95144.91;4987295;28;20360;-77
2022/09/25 02:13:53;;;;;;;14.20;8.40;;;;;;;7.93;84.80;95155.22;4991845;28;20201;-77
2022/09/25 02:16:24;;;;;;;20.00;8.53;;;;;;;7.92;84.63;95164.06;4991927;28;20205;-77
2022/09/25 02:21:38;;;;;;;14.57;8.57;;;;;;;7.90;83.91;95160.81;4988805;28;20719;-77
2022/09/25 02:24:12;;;;;;;14.10;8.27;;;;;;;7.92;83.99;95164.88;4992318;28;20188;-77
2022/09/25 02:26:37;;;;;;;10.03;7.37;;;;;;;7.92;83.97;95172.75;4993364;28;20168;-77
2022/09/25 02:29:04;;;;;;;15.57;9.60;;;;;;;7.89;83.80;95167.06;4991753;28;20664;-77
2022/09/25 02:31:35;;;;;;;17.27;8.80;;;;;;;7.53;84.45;95144.31;4988884;28;20185;-77
2022/09/25 02:34:02;;;;;;;16.20;8.33;;;;;;;7.68;84.81;95159.19;5006017;28;20192;-76
2022/09/25 02:36:28;;;;;;;18.57;8.50;;;;;;;7.61;84.83;95146.00;5011189;28;20223;-77
2022/09/25 02:38:55;;;;;;;21.23;9.57;;;;;;;7.63;84.52;95145.81;5011142;28;20698;-77
2022/09/25 02:41:56;;;;;;;23.90;10.17;;;;;;;7.70;84.80;95149.31;5011078;28;20636;-77
2022/09/25 02:44:58;;;;;;;16.77;8.67;;;;;;;7.74;84.68;95159.25;5011291;28;20187;-77
2022/09/25 02:47:48;;;;;;;16.83;9.13;;;;;;;7.61;85.26;95164.31;5011294;28;20160;-77
2022/09/25 02:50:26;;;;;;;18.63;9.03;;;;;;;7.67;85.33;95160.19;5011188;28;20184;-77
2022/09/25 02:52:59;;;;;;;15.27;8.80;;;;;;;7.71;84.97;95159.59;5013733;28;20176;-77
2022/09/25 02:55:36;;;;;;;15.13;9.47;;;;;;;7.74;85.14;95153.19;5014883;28;20192;-77
2022/09/25 02:58:12;;;;;;;16.47;8.70;;;;;;;7.78;84.81;95155.28;5012804;28;20197;-77
2022/09/25 03:00:40;;;;;;;14.93;8.30;;;;;;;7.82;85.08;95163.56;5006440;28;20212;-77
2022/09/25 03:03:09;;;;;;;15.00;9.97;;;;;;;7.82;84.84;95156.50;5014638;28;20731;-77
2022/09/25 03:05:36;;;;;;;16.27;8.70;;;;;;;7.68;84.89;95146.91;5014649;28;20331;-77
2022/09/25 03:10:47;;;;;;;18.77;8.70;;;;;;;7.82;84.81;95160.94;5015542;28;20211;-78
2022/09/25 03:13:30;;;;;;;12.50;8.83;;;;;;;7.68;85.09;95136.41;4981611;28;20267;-78
2022/09/25 03:15:58;;;;;;;14.87;9.10;;;;;;;7.86;85.17;95160.41;5014953;28;20200;-78
2022/09/25 03:18:25;;;;;;;18.73;8.63;;;;;;;7.75;85.23;95137.28;5014955;28;20176;-78
2022/09/25 03:20:51;;;;;;;16.03;8.33;;;;;;;7.93;85.24;95161.25;5014773;28;20172;-78
2022/09/25 03:23:17;;;;;;;13.80;7.53;;;;;;;7.94;84.93;95157.66;5014792;28;20173;-78
2022/09/25 03:25:42;;;;;;;21.23;8.77;;;;;;;7.95;85.34;95159.28;5014834;28;20164;-78
2022/09/25 03:28:09;;;;;;;17.03;10.00;;;;;;;7.97;85.02;95145.97;5014954;28;20627;-78
2022/09/25 03:30:37;;;;;;;14.80;9.37;;;;;;;7.93;85.26;95142.91;5014812;28;20207;-78
2022/09/25 03:33:03;;;;;;;16.80;10.10;;;;;;;7.92;85.79;95148.34;5014578;28;20226;-78
2022/09/25 03:35:29;;;;;;;17.53;9.70;;;;;;;7.78;85.46;95126.44;5013923;28;20231;-76
2022/09/25 03:37:54;;;;;;;14.17;10.10;;;;;;;7.94;85.31;95149.78;5013148;28;20211;-76
2022/09/25 03:40:20;;;;;;;15.57;9.33;;;;;;;7.93;85.58;95161.25;5013021;28;20173;-76
2022/09/25 03:42:46;;;;;;;25.07;12.93;;;;;;;7.92;85.70;95162.25;5013377;28;20663;-76
2022/09/25 03:45:11;;;;;;;17.33;10.83;;;;;;;7.89;85.55;95144.28;5013353;28;20518;-76
2022/09/25 03:47:37;;;;;;;17.63;9.93;;;;;;;7.92;85.15;95143.91;5014535;28;20623;-76
2022/09/25 03:50:03;;;;;;;15.47;9.97;;;;;;;7.97;85.02;95153.81;5014389;28;20503;-76
2022/09/25 03:52:28;;;;;;;17.47;9.60;;;;;;;7.95;84.16;95164.50;5014090;28;20176;-76
2022/09/25 03:54:53;;;;;;;17.00;8.70;;;;;;;7.90;84.46;95151.16;5014120;28;20173;-76
2022/09/25 03:57:19;;;;;;;17.03;9.93;;;;;;;7.85;84.74;95152.72;5014166;28;20552;-78
2022/09/25 03:59:44;;;;;;;16.37;9.50;;;;;;;7.73;85.10;95155.00;5014376;28;20233;-78
2022/09/25 04:02:10;;;;;;;17.17;9.87;;;;;;;7.58;85.33;95135.91;5013969;28;20627;-76
2022/09/25 04:04:36;;;;;;;14.70;9.17;;;;;;;7.70;85.41;95159.78;5012710;28;20184;-76
2022/09/25 04:07:02;;;;;;;18.13;10.33;;;;;;;7.64;85.00;95147.44;5013827;28;20810;-76
2022/09/25 04:09:27;;;;;;;20.10;10.07;;;;;;;7.74;84.53;95167.09;5013825;28;20259;-76
2022/09/25 04:11:54;;;;;;;19.80;10.60;;;;;;;7.77;84.84;95172.00;5013946;28;20173;-76
2022/09/25 04:14:20;;;;;;;18.47;10.63;;;;;;;7.75;84.40;95168.72;5013882;28;20169;-76
2022/09/25 04:16:46;;;;;;;21.30;11.33;;;;;;;7.70;84.46;95162.41;5013946;28;20247;-76
2022/09/25 04:19:11;;;;;;;24.70;12.10;;;;;;;7.72;84.71;95165.66;4996362;28;20526;-76
2022/09/25 04:21:37;;;;;;;25.50;12.27;;;;;;;7.68;84.78;95167.03;5014020;28;20180;-76
2022/09/25 04:26:46;;;;;;;19.50;11.83;;;;;;;7.65;84.58;95180.50;5013817;28;20638;-76
2022/09/25 04:29:13;;;;;;;22.60;12.07;;;;;;;7.64;84.27;95174.44;5013575;28;20177;-77
2022/09/25 04:31:39;;;;;;;22.90;12.17;;;;;;;7.63;84.03;95174.63;5013519;28;20176;-76
2022/09/25 04:34:04;;;;;;;19.53;11.93;;;;;;;7.49;84.71;95158.78;5013598;28;20175;-76
2022/09/25 04:36:29;;;;;;;20.60;10.27;;;;;;;7.53;85.24;95177.53;5013350;28;20573;-76
2022/09/25 04:38:55;;;;;;;23.73;11.97;;;;;;;7.45;84.64;95148.84;5013701;28;20191;-77
2022/09/25 04:41:21;;;;;;;20.93;11.10;;;;;;;7.70;84.08;95173.69;5013408;28;20703;-77
2022/09/25 04:43:46;;;;;;;28.57;16.77;;;;;;;7.79;84.30;95169.97;5013170;28;20172;-77
2022/09/25 04:46:12;;;;;;;27.87;16.23;;;;;;;7.64;83.24;95152.69;5013131;28;20172;-77
2022/09/25 04:48:38;;;;;;;28.67;18.37;;;;;;;7.83;83.76;95181.72;5013072;28;20549;-77
2022/09/25 04:51:04;;;;;;;24.03;14.87;;;;;;;7.89;83.50;95177.53;5013231;28;20568;-77
2022/09/25 04:53:33;;;;;;;29.00;13.47;;;;;;;7.95;84.06;95174.19;5013394;28;20164;-77
2022/09/25 04:56:06;;;;;;;32.93;20.60;;;;;;;8.09;83.62;95172.50;5009143;28;20208;-77
2022/09/25 04:58:32;;;;;;;50.93;19.57;;;;;;;8.78;84.16;95170.88;4995410;28;20176;-77
2022/09/25 05:01:03;;;;;;;28.30;19.63;;;;;;;10.49;79.71;95181.22;5013137;28;20164;-78
2022/09/25 05:03:28;;;;;;;19.63;13.57;;;;;;;11.94;72.31;95188.81;5012832;28;20165;-77
2022/09/25 05:05:54;;;;;;;27.80;15.63;;;;;;;13.37;67.41;95190.59;5007197;28;20290;-77
2022/09/25 05:08:19;;;;;;;23.50;14.40;;;;;;;14.88;61.96;95189.59;4993022;28;20284;-78
2022/09/25 05:10:45;;;;;;;27.63;14.17;;;;;;;16.00;57.53;95192.91;5005505;28;20607;-78
2022/09/25 05:13:10;;;;;;;22.15;15.32;;;;;;;17.11;53.99;95199.41;5012356;28;20191;-78
2022/09/25 05:15:36;;;;;;;19.77;13.90;;;;;;;18.36;51.37;95191.47;5012346;28;20758;-78
2022/09/25 05:18:15;;;;;;;24.08;12.65;;;;;;;19.65;47.79;95185.06;5012833;28;20175;-77
2022/09/25 05:20:41;;;;;;;24.25;14.07;;;;;;;20.96;44.26;95178.53;5012658;28;20284;-78
2022/09/25 05:23:07;;;;;;;16.75;10.65;;;;;;;21.77;42.01;95181.13;5012864;28;20250;-78
2022/09/25 05:25:33;;;;;;;22.23;10.55;;;;;;;22.17;40.93;95172.97;5012608;28;20187;-78
2022/09/25 05:28:00;;;;;;;24.75;10.45;;;;;;;22.98;39.52;95173.56;5006863;28;20180;-78
2022/09/25 05:30:30;;;;;;;20.33;11.10;;;;;;;23.92;37.96;95177.53;4994804;28;20185;-78
2022/09/25 05:32:58;;;;;;;16.83;8.25;;;;;;;24.60;35.95;95171.84;4985921;28;20640;-78
2022/09/25 05:35:26;;;;;;;10.65;7.38;;;;;;;25.46;33.89;95178.59;4997893;28;20213;-78
2022/09/25 05:37:52;;;;;;;14.32;8.20;;;;;;;25.98;33.37;95177.41;4994790;28;20184;-79
2022/09/25 05:40:19;;;;;;;20.58;9.05;;;;;;;26.14;31.50;95183.28;5006320;28;20177;-78
2022/09/25 05:42:46;;;;;;;14.40;9.02;;;;;;;25.85;32.76;95170.91;4997548;28;20185;-78
2022/09/25 05:45:17;;;;;;;15.02;9.48;;;;;;;26.22;32.31;95180.69;4995138;28;20185;-78
2022/09/25 05:47:42;;;;;;;15.95;8.45;;;;;;;26.93;31.64;95189.22;4994646;28;20576;-78
2022/09/25 05:50:10;;;;;;;11.90;7.07;;;;;;;27.76;29.95;95190.44;4997013;28;20187;-78
2022/09/25 05:52:35;;;;;;;9.70;6.30;;;;;;;28.41;28.43;95195.97;5002330;28;20216;-77
2022/09/25 05:55:02;;;;;;;11.00;7.40;;;;;;;28.93;27.30;95168.16;4992683;28;20181;-78
2022/09/25 05:57:35;;;;;;;9.18;6.75;;;;;;;29.24;26.40;95191.28;4992346;28;20218;-78
2022/09/25 06:00:07;;;;;;;8.73;6.72;;;;;;;29.30;26.29;95194.66;4975177;28;20240;-78
2022/09/25 06:02:33;;;;;;;9.70;6.13;;;;;;;29.52;25.76;95185.53;4972985;28;20166;-78
2022/09/25 06:04:58;;;;;;;9.15;6.25;;;;;;;30.10;24.83;95186.84;4973179;28;20216;-78
2022/09/25 06:07:24;;;;;;;13.75;6.68;;;;;;;30.19;24.79;95163.91;4955078;28;20222;-80
2022/09/25 06:09:49;;;;;;;14.10;5.80;;;;;;;30.13;24.04;95178.81;4973297;28;20719;-82
2022/09/25 06:12:15;;;;;;;10.70;6.07;;;;;;;30.69;24.28;95179.50;4973161;28;20173;-79
2022/09/25 06:14:40;;;;;;;9.70;5.93;;;;;;;31.35;23.56;95168.75;4973181;28;20256;-82
2022/09/25 06:17:07;;;;;;;14.60;6.68;;;;;;;31.92;22.27;95181.63;4973473;28;20209;-79
2022/09/25 06:19:34;;;;;;;7.60;6.38;;;;;;;31.59;22.08;95157.13;4973417;28;20190;-81
2022/09/25 06:21:59;;;;;;;12.43;6.22;;;;;;;32.09;22.32;95178.69;4973566;28;20161;-82
2022/09/25 06:24:25;;;;;;;9.50;5.60;;;;;;;32.08;21.79;95175.19;4973410;28;20173;-81
2022/09/25 06:26:50;;;;;;;12.73;6.72;;;;;;;32.49;21.33;95195.22;4974515;28;20512;-81
2022/09/25 06:29:15;;;;;;;13.23;5.70;;;;;;;32.38;20.73;95191.34;4977906;28;20193;-80
2022/09/25 06:31:41;;;;;;;6.75;4.68;;;;;;;30.91;21.43;95184.59;4977255;28;20170;-80
2022/09/25 06:34:10;;;;;;;10.15;5.05;;;;;;;30.85;22.24;95175.06;4979877;28;20641;-80
2022/09/25 06:36:36;;;;;;;9.73;5.38;;;;;;;30.38;22.29;95142.56;4998256;28;20192;-80
2022/09/25 06:39:02;;;;;;;8.98;4.43;;;;;;;29.38;23.42;95188.44;4998487;28;20191;-80
2022/09/25 06:41:27;;;;;;;6.60;4.47;;;;;;;27.21;26.31;95179.09;4998700;28;20650;-80
2022/09/25 06:43:54;;;;;;;8.77;4.72;;;;;;;26.19;28.35;95175.09;5015985;28;20247;-79
2022/09/25 06:46:20;;;;;;;5.60;4.47;;;;;;;25.69;29.02;95188.47;5016385;28;20527;-80
2022/09/25 06:48:56;;;;;;;6.75;4.13;;;;;;;25.28;29.50;95176.75;5015902;28;20164;-79
2022/09/25 06:51:31;;;;;;;6.75;4.72;;;;;;;24.75;31.21;95168.94;5016033;28;20160;-80
2022/09/25 06:53:57;;;;;;;6.25;3.92;;;;;;;24.65;31.70;95144.88;5015827;28;20540;-80
2022/09/25 06:56:23;;;;;;;7.68;5.30;;;;;;;24.88;31.22;95130.50;5015711;28;20199;-80
2022/09/25 06:58:49;;;;;;;9.25;4.68;;;;;;;24.59;31.13;95171.03;5015880;28;20176;-80
2022/09/25 07:01:14;;;;;;;8.95;5.28;;;;;;;24.36;32.29;95170.03;5015505;28;20176;-78
2022/09/25 07:03:46;;;;;;;8.27;4.63;;;;;;;23.83;33.22;95141.59;5015706;28;20172;-80
2022/09/25 07:06:19;;;;;;;10.23;5.30;;;;;;;24.34;32.52;95192.94;5015440;28;20221;-80
2022/09/25 07:08:47;;;;;;;7.45;4.97;;;;;;;24.57;31.43;95194.75;5015541;28;20244;-82
2022/09/25 07:11:20;;;;;;;7.45;5.40;;;;;;;24.87;31.08;95198.13;5014907;28;20260;-82
2022/09/25 07:13:48;;;;;;;11.82;5.43;;;;;;;24.78;32.93;95176.44;5015070;28;20582;-81
2022/09/25 07:16:16;;;;;;;7.05;5.60;;;;;;;24.89;31.73;95195.94;5005924;28;20196;-81
2022/09/25 07:18:45;;;;;;;9.40;5.85;;;;;;;24.41;31.02;95196.88;5014783;28;20204;-80
2022/09/25 07:21:19;;;;;;;9.85;5.93;;;;;;;23.83;32.75;95206.16;5014222;28;20156;-82
2022/09/25 07:23:48;;;;;;;12.43;5.57;;;;;;;23.58;34.42;95210.69;5014651;28;20172;-81
2022/09/25 07:26:25;;;;;;;10.57;5.75;;;;;;;23.44;34.37;95198.19;5014418;28;20584;-82
2022/09/25 07:28:57;;;;;;;8.55;5.28;;;;;;;22.95;34.02;95213.31;5014514;28;20160;-82
2022/09/25 07:31:31;;;;;;;8.48;5.22;;;;;;;22.88;33.88;95204.78;5011671;28;20161;-81
2022/09/25 07:33:59;;;;;;;8.43;4.88;;;;;;;22.63;34.11;95188.00;4994691;28;20180;-81
2022/09/25 07:36:24;;;;;;;5.80;4.72;;;;;;;22.07;34.88;95196.31;4997328;28;20200;-79
2022/09/25 07:38:53;;;;;;;7.20;4.45;;;;;;;22.04;35.88;95178.94;5004734;28;20191;-82
2022/09/25 07:41:21;;;;;;;7.13;5.25;;;;;;;22.32;35.61;95166.69;5004145;28;20182;-77
2022/09/25 07:43:56;;;;;;;7.57;4.82;;;;;;;22.70;35.22;95170.50;5001446;28;20585;-79
2022/09/25 07:46:26;;;;;;;6.88;4.57;;;;;;;22.96;35.15;95155.06;5000228;28;20164;-80
2022/09/25 07:48:52;;;;;;;8.25;5.47;;;;;;;22.67;33.87;95130.78;5005275;28;20614;-79
2022/09/25 07:51:19;;;;;;;6.57;5.03;;;;;;;22.48;35.38;95159.41;4985606;28;20293;-80
2022/09/25 07:53:47;;;;;;;8.70;5.03;;;;;;;22.36;36.17;95146.31;5003497;28;20326;-80
2022/09/25 07:56:13;;;;;;;10.55;5.00;;;;;;;22.51;34.47;95135.47;5008123;28;20201;-80
2022/09/25 07:58:39;;;;;;;7.95;5.22;;;;;;;22.47;34.51;95106.81;4987797;28;20191;-79
2022/09/25 08:01:07;;;;;;;8.57;5.10;;;;;;;22.74;35.12;95115.22;5003051;28;20231;-80
2022/09/25 08:03:33;;;;;;;10.32;5.53;;;;;;;22.69;34.03;95147.44;4996321;28;20181;-78
2022/09/25 08:06:12;;;;;;;9.88;5.53;;;;;;;22.20;34.84;95150.97;4999220;28;20319;-79
2022/09/25 08:08:41;;;;;;;7.80;4.90;;;;;;;22.28;35.76;95151.44;4989151;28;20188;-78
2022/09/25 08:11:10;;;;;;;7.95;5.13;;;;;;;22.70;36.34;95153.59;4965486;28;20188;-78
2022/09/25 08:13:37;;;;;;;7.80;5.15;;;;;;;22.82;34.68;95144.16;4993979;28;20690;-77
2022/09/25 08:16:10;;;;;;;14.80;7.85;;;;;;;22.73;33.73;95135.06;5005605;28;20197;-77
2022/09/25 08:18:35;;;;;;;6.68;4.82;;;;;;;22.53;33.88;95137.88;4996770;28;20268;-78
2022/09/25 08:21:02;;;;;;;7.55;5.00;;;;;;;22.41;34.38;95132.03;5001218;28;20352;-78
2022/09/25 08:23:28;;;;;;;5.43;4.05;;;;;;;22.68;34.72;95132.41;4979233;28;20649;-78
2022/09/25 08:25:53;;;;;;;14.05;6.45;;;;;;;22.72;34.67;95133.47;4999260;28;20259;-79
2022/09/25 08:28:19;;;;;;;7.13;4.57;;;;;;;22.43;34.61;95130.69;4995016;28;20181;-77
2022/09/25 08:30:44;;;;;;;9.95;5.28;;;;;;;22.53;34.52;95119.91;4998381;28;20181;-79
2022/09/25 08:33:13;;;;;;;7.57;5.25;;;;;;;22.75;35.49;95121.38;5002138;28;20181;-77
2022/09/25 08:35:42;;;;;;;7.65;4.57;;;;;;;22.59;33.76;95110.72;4998491;28;20706;-77
2022/09/25 08:38:11;;;;;;;8.82;4.65;;;;;;;21.95;34.33;95075.97;5003081;28;20176;-76
2022/09/25 08:40:46;;;;;;;10.27;4.50;;;;;;;22.25;34.02;95106.41;4996061;28;20215;-79
2022/09/25 08:43:19;;;;;;;5.38;4.07;;;;;;;22.45;35.46;95117.00;4994406;28;20312;-79
2022/09/25 08:49:04;;;;;;;14.57;6.07;;;;;;;22.87;33.91;95113.75;4961568;28;20571;-76
2022/09/25 08:51:37;;;;;;;8.88;5.30;;;;;;;22.98;35.23;95115.28;4989794;28;20716;-78
2022/09/25 08:54:03;;;;;;;8.68;5.28;;;;;;;23.16;33.92;95122.66;5001593;28;20639;-77
2022/09/25 08:56:31;;;;;;;5.90;4.40;;;;;;;23.08;34.62;95109.84;5002194;28;20234;-77
2022/09/25 08:59:25;;;;;;;7.43;4.55;;;;;;;22.72;32.92;95109.31;5006024;28;20267;-79
2022/09/25 09:01:54;;;;;;;7.70;4.30;;;;;;;22.44;34.19;95094.75;4991372;28;20597;-77
2022/09/25 09:04:26;;;;;;;5.57;3.38;;;;;;;22.24;33.93;95094.06;5000202;28;20177;-78
2022/09/25 09:07:16;;;;;;;7.32;3.67;;;;;;;22.23;34.43;95095.16;4999699;28;20318;-77
2022/09/25 09:09:46;;;;;;;9.88;3.97;;;;;;;22.10;34.71;95091.19;4979060;28;20192;-77
2022/09/25 09:12:16;;;;;;;4.47;3.72;;;;;;;22.00;34.12;95094.72;5006242;28;20185;-77
2022/09/25 09:14:48;;;;;;;7.00;3.30;;;;;;;21.88;33.91;95093.44;4985327;28;20211;-77
2022/09/25 09:17:19;;;;;;;4.13;3.47;;;;;;;21.81;34.89;95083.00;5001230;28;20271;-76
2022/09/25 09:19:52;;;;;;;4.47;3.22;;;;;;;21.81;35.45;95067.72;5002621;28;20200;-76
2022/09/25 09:22:31;;;;;;;9.65;3.40;;;;;;;21.72;35.82;95071.25;5001616;28;20180;-76
2022/09/25 09:25:17;;;;;;;6.85;3.70;;;;;;;21.53;35.70;95079.13;4998512;28;20185;-77
2022/09/25 09:28:05;;;;;;;8.38;4.03;;;;;;;21.40;35.94;95069.75;5003188;28;20181;-78
2022/09/25 09:30:39;;;;;;;8.38;3.55;;;;;;;21.41;36.02;95070.56;4992592;28;20300;-78
2022/09/25 09:33:34;;;;;;;8.45;3.60;;;;;;;21.15;35.51;95074.34;4999001;28;20180;-81
2022/09/25 09:36:37;;;;;;;6.82;4.15;;;;;;;21.07;37.21;95070.38;4967759;28;20231;-80
2022/09/25 09:39:25;;;;;;;7.65;4.03;;;;;;;21.09;36.45;95052.16;4989465;28;20183;-78
2022/09/25 09:41:57;;;;;;;5.07;3.60;;;;;;;20.99;36.39;95057.53;4985947;28;20186;-77
2022/09/25 09:44:59;;;;;;;6.15;3.97;;;;;;;21.07;38.72;95054.28;4991069;28;20176;-79
2022/09/25 09:47:38;;;;;;;5.95;3.47;;;;;;;21.42;36.67;95056.91;4975593;28;20240;-74
2022/09/25 09:50:35;;;;;;;5.75;2.90;;;;;;;21.80;35.64;95055.38;4995383;28;20239;-76
2022/09/25 09:53:10;;;;;;;6.50;3.08;;;;;;;21.53;34.43;95032.75;4987547;28;20197;-75
2022/09/25 09:55:47;;;;;;;6.45;3.22;;;;;;;21.38;35.78;95041.63;4999811;28;20215;-75
2022/09/25 09:58:18;;;;;;;6.07;3.15;;;;;;;21.20;37.54;95048.38;4991287;28;20185;-74
2022/09/25 10:00:48;;;;;;;6.93;3.20;;;;;;;21.00;36.15;95045.75;4988743;28;20184;-75
2022/09/25 10:03:36;;;;;;;5.22;2.70;;;;;;;21.01;35.97;95040.13;4995494;28;20242;-77
2022/09/25 10:06:08;;;;;;;8.93;3.22;;;;;;;21.06;35.68;95036.63;4991465;28;20575;-74
2022/09/25 10:08:34;;;;;;;3.55;2.67;;;;;;;20.93;35.97;95035.31;4992353;28;20188;-74
2022/09/25 10:11:08;;;;;;;3.95;2.85;;;;;;;20.78;37.39;95034.53;4999478;28;20245;-74
2022/09/25 10:13:38;;;;;;;7.13;3.33;;;;;;;20.75;36.61;95030.53;4995526;28;20738;-74
2022/09/25 10:16:16;;;;;;;9.38;2.97;;;;;;;20.79;37.48;95030.78;4995743;28;20339;-74
2022/09/25 10:18:54;;;;;;;4.85;2.90;;;;;;;20.40;37.36;95014.50;4988915;28;20184;-74
2022/09/25 10:21:27;;;;;;;3.72;2.80;;;;;;;20.56;38.22;95016.09;4991509;28;20292;-75
2022/09/25 10:23:57;;;;;;;8.02;3.10;;;;;;;20.71;37.31;95019.56;4994913;28;20220;-76
2022/09/25 10:26:22;;;;;;;7.47;3.25;;;;;;;20.75;36.33;95019.84;4996025;28;20707;-75
2022/09/25 10:28:48;;;;;;;8.10;2.88;;;;;;;20.74;37.66;95014.75;4995218;28;20195;-76
2022/09/25 10:31:15;;;;;;;10.18;3.13;;;;;;;20.78;37.89;94986.38;4995415;28;20633;-75
2022/09/25 10:33:40;;;;;;;5.38;2.90;;;;;;;21.10;38.39;95002.91;4991884;28;20192;-75
2022/09/25 10:36:06;;;;;;;3.25;2.90;;;;;;;20.86;36.43;95000.00;4990108;28;20278;-75
2022/09/25 10:38:48;;;;;;;4.35;3.17;;;;;;;20.77;36.64;95000.81;4989838;28;20912;-75
2022/09/25 10:41:18;;;;;;;5.43;2.70;;;;;;;20.84;36.56;95004.84;4990532;28;20173;-75
2022/09/25 10:43:55;;;;;;;4.90;3.03;;;;;;;20.95;38.35;94990.34;4987128;28;20212;-75
2022/09/25 10:52:11;;;;;;;4.88;2.65;;;;;;;21.03;36.34;94980.94;4991380;28;20192;-75
2022/09/25 10:54:37;;;;;;;3.67;2.60;;;;;;;21.05;38.69;94994.84;4984400;28;20192;-74
2022/09/25 10:57:32;;;;;;;3.97;2.83;;;;;;;21.24;36.06;94987.88;4979527;28;20589;-75
2022/09/25 10:59:59;;;;;;;4.63;2.65;;;;;;;21.32;36.24;94991.84;4993415;28;20190;-75
2022/09/25 11:02:38;;;;;;;5.63;2.47;;;;;;;21.36;35.67;94982.97;4993852;28;20205;-75
2022/09/25 11:05:17;;;;;;;3.97;2.80;;;;;;;21.23;35.75;94977.44;4993796;28;20276;-75
2022/09/25 11:08:15;;;;;;;3.75;2.28;;;;;;;21.35;37.22;94973.38;4986797;28;20288;-75
2022/09/25 11:10:56;;;;;;;2.92;2.63;;;;;;;21.50;34.50;94969.00;4968849;28;20666;-75
2022/09/25 11:13:35;;;;;;;8.30;2.30;;;;;;;21.45;35.03;94959.91;4996272;28;20218;-75
2022/09/25 11:16:03;;;;;;;4.80;2.53;;;;;;;21.59;35.42;94970.81;5003257;28;20235;-75
2022/09/25 11:18:44;;;;;;;4.70;2.78;;;;;;;21.55;34.94;94942.97;5001375;28;20668;-76
2022/09/25 11:21:29;;;;;;;4.47;2.60;;;;;;;21.79;35.91;94959.97;5002357;28;20184;-76
2022/09/25 11:24:05;;;;;;;4.63;2.70;;;;;;;21.77;34.50;94961.34;4997105;28;20188;-76
2022/09/25 11:26:41;;;;;;;2.63;2.20;;;;;;;21.84;35.54;94961.81;4990721;28;21049;-76
2022/09/25 11:29:44;;;;;;;3.28;2.30;;;;;;;21.95;34.80;94951.84;4995090;28;20644;-76
2022/09/25 11:32:19;;;;;;;2.65;2.00;;;;;;;21.95;33.30;94949.97;4973735;28;20228;-76
2022/09/25 11:35:02;;;;;;;5.05;2.40;;;;;;;22.00;33.68;94946.47;4988664;28;20271;-76
2022/09/25 11:37:48;;;;;;;5.32;2.30;;;;;;;21.80;33.63;94942.81;4990553;28;20572;-75
2022/09/25 11:43:45;;;;;;;2.78;1.88;;;;;;;21.77;33.01;94919.25;4986536;28;20799;-77
2022/09/25 11:46:21;;;;;;;7.15;2.83;;;;;;;21.86;33.13;94907.94;4993812;28;20184;-77
2022/09/25 11:49:09;;;;;;;2.53;2.33;;;;;;;22.02;32.82;94915.63;4979597;28;20584;-79
2022/09/25 11:51:34;;;;;;;8.13;2.00;;;;;;;22.02;32.66;94931.69;4988031;28;20173;-76
2022/09/25 11:54:17;;;;;;;4.60;2.15;;;;;;;22.06;32.77;94905.91;4990552;28;20656;-77
2022/09/25 11:56:43;;;;;;;4.18;2.60;;;;;;;22.10;31.92;94911.53;4986833;28;20296;-77
2022/09/25 11:59:30;;;;;;;2.83;2.10;;;;;;;22.14;32.73;94899.94;4994487;28;20716;-77
2022/09/25 12:02:39;;;;;;;1.85;1.60;;;;;;;22.30;32.32;94915.91;4988202;28;20215;-77
2022/09/25 12:05:33;;;;;;;3.38;2.00;;;;;;;22.39;32.70;94898.13;4963451;28;20204;-76
2022/09/25 12:08:11;;;;;;;3.42;1.88;;;;;;;22.48;31.89;94894.53;4994175;28;20185;-77
2022/09/25 12:11:01;;;;;;;8.50;2.13;;;;;;;22.63;33.30;94892.78;4994552;28;20219;-76
2022/09/25 12:14:00;;;;;;;4.43;1.73;;;;;;;22.82;31.85;94896.34;4992412;28;20263;-76